createdAt,value
2023-02-04T00:00:18.184Z,9.60
2023-02-04T00:02:45.396Z,9.60
2023-02-04T00:05:13.269Z,9.60
2023-02-04T00:07:41.433Z,9.70
2023-02-04T00:10:10.491Z,9.70
2023-02-04T00:12:37.485Z,9.60
2023-02-04T00:15:05.357Z,9.70
2023-02-04T00:17:32.408Z,9.60
2023-02-04T00:19:59.404Z,9.60
2023-02-04T00:22:28.393Z,9.60
2023-02-04T00:24:55.676Z,9.60
2023-02-04T00:27:22.839Z,9.60
2023-02-04T00:29:49.933Z,9.60
2023-02-04T00:32:17.112Z,9.60
2023-02-04T00:34:44.127Z,9.70
2023-02-04T00:37:11.164Z,9.60
2023-02-04T00:39:38.429Z,9.60
2023-02-04T00:42:06.505Z,9.60
2023-02-04T00:44:36.681Z,9.60
2023-02-04T00:47:04.576Z,9.60
2023-02-04T00:49:31.865Z,9.60
2023-02-04T00:51:59.295Z,9.60
2023-02-04T00:54:26.735Z,9.60
2023-02-04T00:56:53.854Z,9.60
2023-02-04T00:59:20.784Z,9.60
2023-02-04T01:01:47.865Z,9.60
2023-02-04T01:04:15.164Z,9.60
2023-02-04T01:06:42.138Z,9.60
2023-02-04T01:09:10.403Z,9.60
2023-02-04T01:11:37.796Z,9.60
2023-02-04T01:14:04.780Z,9.60
2023-02-04T01:16:32.420Z,9.60
2023-02-04T01:19:00.497Z,9.50
2023-02-04T01:21:27.629Z,9.60
2023-02-04T01:23:54.708Z,9.60
2023-02-04T01:26:22.529Z,9.60
2023-02-04T01:28:50.017Z,9.60
2023-02-04T01:31:18.321Z,9.60
2023-02-04T01:33:45.487Z,9.60
2023-02-04T01:36:12.651Z,9.60
2023-02-04T01:38:40.478Z,9.60
2023-02-04T01:41:07.574Z,9.60
2023-02-04T01:43:34.639Z,9.60
2023-02-04T01:46:02.833Z,9.60
2023-02-04T01:48:30.569Z,9.60
2023-02-04T01:51:07.550Z,9.60
2023-02-04T01:53:35.887Z,9.60
2023-02-04T01:56:14.881Z,9.60
2023-02-04T01:58:42.020Z,9.60
2023-02-04T02:01:33.068Z,9.60
2023-02-04T02:04:01.221Z,9.60
2023-02-04T02:06:29.063Z,9.60
2023-02-04T02:08:56.377Z,9.60
2023-02-04T02:11:23.339Z,9.60
2023-02-04T02:13:50.332Z,9.60
2023-02-04T02:16:17.924Z,9.60
2023-02-04T02:18:46.305Z,9.60
2023-02-04T02:21:16.414Z,9.50
2023-02-04T02:23:52.754Z,9.50
2023-02-04T02:26:22.344Z,9.60
2023-02-04T02:28:49.817Z,9.60
2023-02-04T02:31:20.550Z,9.60
2023-02-04T02:33:48.429Z,9.60
2023-02-04T02:36:16.740Z,9.60
2023-02-04T02:38:44.139Z,9.50
2023-02-04T02:41:11.118Z,9.50
2023-02-04T02:43:38.660Z,9.60
2023-02-04T02:46:06.507Z,9.60
2023-02-04T02:48:33.742Z,9.60
2023-02-04T02:51:01.511Z,9.60
2023-02-04T02:53:28.628Z,9.60
2023-02-04T02:55:55.780Z,9.60
2023-02-04T02:58:36.509Z,9.60
2023-02-04T03:01:07.436Z,9.60
2023-02-04T03:03:39.206Z,9.60
2023-02-04T03:06:14.027Z,9.50
2023-02-04T03:08:42.564Z,9.60
2023-02-04T03:11:10.062Z,9.50
2023-02-04T03:13:37.631Z,9.50
2023-02-04T03:16:06.402Z,9.50
2023-02-04T03:18:33.781Z,9.50
2023-02-04T03:21:04.862Z,9.50
2023-02-04T03:23:33.945Z,9.60
2023-02-04T03:26:03.545Z,9.50
2023-02-04T03:28:31.782Z,9.50
2023-02-04T03:30:59.098Z,9.50
2023-02-04T03:33:31.627Z,9.50
2023-02-04T03:35:59.254Z,9.50
2023-02-04T03:38:26.481Z,9.50
2023-02-04T03:40:53.588Z,9.50
2023-02-04T03:43:20.595Z,9.50
2023-02-04T03:45:47.631Z,9.50
2023-02-04T03:48:14.595Z,9.50
2023-02-04T03:50:41.762Z,9.50
2023-02-04T03:53:09.768Z,9.50
2023-02-04T03:55:36.946Z,9.50
2023-02-04T03:58:04.811Z,9.50
2023-02-04T04:00:33.148Z,9.50
2023-02-04T04:03:00.445Z,9.50
2023-02-04T04:05:28.698Z,9.50
2023-02-04T04:07:56.476Z,9.50
2023-02-04T04:10:23.478Z,9.50
2023-02-04T04:12:50.461Z,9.50
2023-02-04T04:15:17.895Z,9.50
2023-02-04T04:17:44.864Z,9.50
2023-02-04T04:20:12.543Z,9.50
2023-02-04T04:22:39.940Z,9.50
2023-02-04T04:25:07.512Z,9.50
2023-02-04T04:27:34.651Z,9.50
2023-02-04T04:30:01.824Z,9.40
2023-02-04T04:32:28.785Z,9.50
2023-02-04T04:34:55.885Z,9.40
2023-02-04T04:37:22.891Z,9.50
2023-02-04T04:39:49.904Z,9.50
2023-02-04T04:42:16.906Z,9.50
2023-02-04T04:44:43.904Z,9.40
2023-02-04T04:47:10.839Z,9.50
2023-02-04T04:49:37.893Z,9.40
2023-02-04T04:52:05.078Z,9.40
2023-02-04T04:54:32.102Z,9.40
2023-02-04T04:56:59.113Z,9.40
2023-02-04T04:59:26.127Z,9.40
2023-02-04T05:01:53.042Z,9.40
2023-02-04T05:04:20.070Z,9.40
2023-02-04T05:06:47.039Z,9.40
2023-02-04T05:09:15.212Z,9.40
2023-02-04T05:11:42.164Z,9.40
2023-02-04T05:14:09.175Z,9.40
2023-02-04T05:16:36.207Z,9.40
2023-02-04T05:19:03.277Z,9.40
2023-02-04T05:21:30.175Z,9.40
2023-02-04T05:23:57.174Z,9.40
2023-02-04T05:26:30.225Z,9.40
2023-02-04T05:29:00.472Z,9.40
2023-02-04T05:31:27.957Z,9.40
2023-02-04T05:33:55.505Z,9.40
2023-02-04T05:36:22.521Z,9.40
2023-02-04T05:38:49.570Z,9.40
2023-02-04T05:41:16.492Z,9.40
2023-02-04T05:43:43.491Z,9.40
2023-02-04T05:46:10.559Z,9.40
2023-02-04T05:48:37.763Z,9.40
2023-02-04T05:51:04.773Z,9.40
2023-02-04T05:53:32.098Z,9.40
2023-02-04T05:55:59.022Z,9.40
2023-02-04T05:58:26.098Z,9.40
2023-02-04T06:00:53.086Z,9.40
2023-02-04T06:03:21.594Z,9.40
2023-02-04T06:05:48.605Z,9.40
2023-02-04T06:08:16.911Z,9.40
2023-02-04T06:10:43.916Z,9.30
2023-02-04T06:13:11.209Z,9.40
2023-02-04T06:15:38.247Z,9.30
2023-02-04T06:18:05.325Z,9.30
2023-02-04T06:20:32.564Z,9.40
2023-02-04T06:22:59.985Z,9.30
2023-02-04T06:25:26.976Z,9.30
2023-02-04T06:27:54.056Z,9.20
2023-02-04T06:30:21.215Z,9.30
2023-02-04T06:32:48.257Z,9.20
2023-02-04T06:35:16.649Z,9.20
2023-02-04T06:37:44.463Z,9.20
2023-02-04T06:40:12.310Z,9.20
2023-02-04T06:42:39.310Z,9.20
2023-02-04T06:45:06.830Z,9.20
2023-02-04T06:47:33.888Z,9.20
2023-02-04T06:50:00.817Z,9.20
2023-02-04T06:52:27.827Z,9.20
2023-02-04T06:54:54.906Z,9.20
2023-02-04T06:57:21.904Z,9.20
2023-02-04T06:59:48.893Z,9.20
2023-02-04T07:02:15.933Z,9.20
2023-02-04T07:04:47.657Z,9.20
2023-02-04T07:07:14.893Z,9.20
2023-02-04T07:09:42.625Z,9.20
2023-02-04T07:12:09.701Z,9.10
2023-02-04T07:14:38.142Z,9.20
2023-02-04T07:17:05.237Z,9.20
2023-02-04T07:19:32.229Z,9.20
2023-02-04T07:21:59.545Z,9.10
2023-02-04T07:24:26.533Z,9.10
2023-02-04T07:26:53.590Z,9.20
2023-02-04T07:29:25.644Z,9.10
2023-02-04T07:31:53.851Z,9.10
2023-02-04T07:34:21.455Z,9.10
2023-02-04T07:36:48.592Z,9.10
2023-02-04T07:39:16.041Z,9.10
2023-02-04T07:41:43.147Z,9.10
2023-02-04T07:44:12.397Z,9.10
2023-02-04T07:46:39.526Z,9.10
2023-02-04T07:49:06.544Z,9.10
2023-02-04T07:51:33.570Z,9.10
2023-02-04T07:54:00.582Z,9.10
2023-02-04T07:56:27.664Z,9.10
2023-02-04T07:58:54.608Z,9.10
2023-02-04T08:01:21.616Z,9.00
2023-02-04T08:03:48.628Z,9.10
2023-02-04T08:06:15.690Z,9.10
2023-02-04T08:08:42.620Z,9.00
2023-02-04T08:11:09.621Z,9.10
2023-02-04T08:13:36.556Z,9.10
2023-02-04T08:16:03.691Z,9.10
2023-02-04T08:18:30.710Z,9.10
2023-02-04T08:20:59.188Z,9.10
2023-02-04T08:23:26.188Z,9.10
2023-02-04T08:25:53.289Z,9.10
2023-02-04T08:28:20.294Z,9.10
2023-02-04T08:30:47.681Z,9.10
2023-02-04T08:33:14.702Z,9.10
2023-02-04T08:35:41.680Z,9.20
2023-02-04T08:38:08.749Z,9.20
2023-02-04T08:40:36.102Z,9.20
2023-02-04T08:43:03.468Z,9.20
2023-02-04T08:45:30.461Z,9.20
2023-02-04T08:47:57.744Z,9.20
2023-02-04T08:50:24.738Z,9.30
2023-02-04T08:52:51.723Z,9.30
2023-02-04T08:55:18.758Z,9.30
2023-02-04T08:57:45.742Z,9.30
2023-02-04T09:00:13.360Z,9.30
2023-02-04T09:02:40.368Z,9.40
2023-02-04T09:05:07.808Z,9.40
2023-02-04T09:07:34.816Z,9.40
2023-02-04T09:10:01.976Z,9.40
2023-02-04T09:12:28.955Z,9.40
2023-02-04T09:14:55.914Z,9.40
2023-02-04T09:17:22.935Z,9.50
2023-02-04T09:19:49.925Z,9.50
2023-02-04T09:22:16.847Z,9.50
2023-02-04T09:24:43.857Z,9.50
2023-02-04T09:27:10.838Z,9.50
2023-02-04T09:29:38.312Z,9.50
2023-02-04T09:32:05.506Z,9.60
2023-02-04T09:34:32.553Z,9.60
2023-02-04T09:36:59.505Z,9.60
2023-02-04T09:39:26.526Z,9.60
2023-02-04T09:41:54.370Z,9.70
2023-02-04T09:44:24.591Z,9.70
2023-02-04T09:46:54.755Z,9.70
2023-02-04T09:49:22.189Z,9.80
2023-02-04T09:51:50.464Z,9.80
2023-02-04T09:54:20.301Z,9.90
2023-02-04T09:56:48.151Z,9.90
2023-02-04T09:59:21.078Z,9.90
2023-02-04T10:01:55.780Z,9.90
2023-02-04T10:04:23.170Z,9.90
2023-02-04T10:06:50.331Z,10.00
2023-02-04T10:09:18.505Z,10.00
2023-02-04T10:11:48.388Z,10.00
2023-02-04T10:14:20.739Z,10.10
2023-02-04T10:16:59.131Z,10.20
2023-02-04T10:19:28.875Z,10.30
2023-02-04T10:21:56.799Z,10.30
2023-02-04T10:24:26.580Z,10.40
2023-02-04T10:26:54.320Z,10.40
2023-02-04T10:29:25.927Z,10.40
2023-02-04T10:31:53.681Z,10.50
2023-02-04T10:34:34.477Z,10.50
2023-02-04T10:37:16.826Z,10.50
2023-02-04T10:39:43.822Z,10.60
2023-02-04T10:42:22.922Z,10.60
2023-02-04T10:44:50.462Z,10.60
2023-02-04T10:47:18.633Z,10.60
2023-02-04T10:50:04.837Z,10.70
2023-02-04T10:52:38.586Z,10.70
2023-02-04T10:55:08.407Z,10.80
2023-02-04T10:57:39.477Z,10.90
2023-02-04T11:00:16.078Z,10.90
2023-02-04T11:03:00.291Z,11.00
2023-02-04T11:05:34.364Z,11.00
2023-02-04T11:08:02.642Z,11.10
2023-02-04T11:10:33.150Z,11.10
2023-02-04T11:13:06.647Z,11.20
2023-02-04T11:15:51.000Z,11.30
2023-02-04T11:18:21.190Z,11.30
2023-02-04T11:20:50.084Z,11.30
2023-02-04T11:23:26.214Z,11.40
2023-02-04T11:26:37.472Z,11.40
2023-02-04T11:29:04.462Z,11.40
2023-02-04T11:31:34.627Z,11.50
2023-02-04T11:34:16.520Z,11.50
2023-02-04T11:36:57.064Z,11.60
2023-02-04T11:39:37.905Z,11.60
2023-02-04T11:42:14.583Z,11.60
2023-02-04T11:44:41.705Z,11.60
2023-02-04T11:47:09.624Z,11.60
2023-02-04T11:49:37.678Z,11.70
2023-02-04T11:52:08.960Z,11.70
2023-02-04T11:54:36.759Z,11.70
2023-02-04T11:57:04.090Z,11.70
2023-02-04T11:59:31.281Z,11.70
2023-02-04T12:02:17.421Z,11.70
2023-02-04T12:04:52.961Z,11.70
2023-02-04T12:07:28.479Z,11.70
2023-02-04T12:09:57.040Z,11.70
2023-02-04T12:12:29.800Z,11.80
2023-02-04T12:15:13.735Z,11.80
2023-02-04T12:17:44.120Z,11.80
2023-02-04T12:20:13.641Z,11.70
2023-02-04T12:22:40.656Z,11.80
2023-02-04T12:25:08.159Z,11.70
2023-02-04T12:27:35.159Z,11.70
2023-02-04T12:30:02.188Z,11.70
2023-02-04T12:32:29.099Z,11.70
2023-02-04T12:34:56.188Z,11.70
2023-02-04T12:37:23.175Z,11.70
2023-02-04T12:39:50.169Z,11.70
2023-02-04T12:42:17.170Z,11.70
2023-02-04T12:44:44.234Z,11.70
2023-02-04T12:47:11.196Z,11.70
2023-02-04T12:49:38.206Z,11.70
2023-02-04T12:52:06.125Z,11.70
2023-02-04T12:54:33.170Z,11.60
2023-02-04T12:57:00.239Z,11.60
2023-02-04T12:59:27.372Z,11.60
2023-02-04T13:01:54.513Z,11.60
2023-02-04T13:04:21.582Z,11.70
2023-02-04T13:06:48.626Z,11.60
2023-02-04T13:09:15.694Z,11.60
2023-02-04T13:11:42.660Z,11.60
2023-02-04T13:14:09.653Z,11.60
2023-02-04T13:16:36.605Z,11.60
2023-02-04T13:19:03.716Z,11.60
2023-02-04T13:21:31.342Z,11.60
2023-02-04T13:23:59.811Z,11.60
2023-02-04T13:26:26.846Z,11.60
2023-02-04T13:28:53.920Z,11.60
2023-02-04T13:31:21.142Z,11.60
2023-02-04T13:33:48.230Z,11.60
2023-02-04T13:36:15.274Z,11.50
2023-02-04T13:38:42.281Z,11.50
2023-02-04T13:41:09.286Z,11.50
2023-02-04T13:43:36.682Z,11.50
2023-02-04T13:46:05.480Z,11.40
2023-02-04T13:48:32.591Z,11.50
2023-02-04T13:50:59.533Z,11.40
2023-02-04T13:53:31.074Z,11.40
2023-02-04T13:55:58.534Z,11.40
2023-02-04T13:58:25.515Z,11.40
2023-02-04T14:00:57.384Z,11.40
2023-02-04T14:03:25.816Z,11.40
2023-02-04T14:05:52.933Z,11.40
2023-02-04T14:08:20.962Z,11.40
2023-02-04T14:10:48.382Z,11.30
2023-02-04T14:13:15.735Z,11.30
2023-02-04T14:15:42.665Z,11.30
2023-02-04T14:18:10.618Z,11.30
2023-02-04T14:20:38.310Z,11.20
2023-02-04T14:23:06.219Z,11.30
2023-02-04T14:25:33.346Z,11.20
2023-02-04T14:28:00.527Z,11.20
2023-02-04T14:30:29.136Z,11.20
2023-02-04T14:32:56.817Z,11.20
2023-02-04T14:35:24.297Z,11.20
2023-02-04T14:37:51.781Z,11.20
2023-02-04T14:40:20.242Z,11.20
2023-02-04T14:42:47.252Z,11.20
2023-02-04T14:45:15.000Z,11.20
2023-02-04T14:47:42.427Z,11.20
2023-02-04T14:50:13.696Z,11.10
2023-02-04T14:52:40.722Z,11.20
2023-02-04T14:55:10.504Z,11.20
2023-02-04T14:57:37.601Z,11.10
2023-02-04T15:00:07.029Z,11.10
2023-02-04T15:02:34.132Z,11.10
2023-02-04T15:05:01.163Z,11.10
2023-02-04T15:07:28.299Z,11.00
2023-02-04T15:09:55.382Z,11.00
2023-02-04T15:12:22.730Z,11.00
2023-02-04T15:14:49.690Z,11.00
2023-02-04T15:17:16.870Z,10.90
2023-02-04T15:19:43.812Z,10.90
2023-02-04T15:22:12.579Z,10.90
2023-02-04T15:24:39.983Z,10.90
2023-02-04T15:27:07.082Z,10.90
2023-02-04T15:29:34.178Z,10.90
2023-02-04T15:32:01.287Z,10.90
2023-02-04T15:34:28.347Z,10.90
2023-02-04T15:36:55.373Z,10.90
2023-02-04T15:39:22.401Z,10.90
2023-02-04T15:41:49.447Z,10.80
2023-02-04T15:44:16.399Z,10.90
2023-02-04T15:46:43.437Z,10.80
2023-02-04T15:49:10.353Z,10.80
2023-02-04T15:51:37.357Z,10.80
2023-02-04T15:54:04.425Z,10.80
2023-02-04T15:56:31.435Z,10.80
2023-02-04T15:59:00.364Z,10.80
2023-02-04T16:01:28.597Z,10.80
2023-02-04T16:03:56.909Z,10.80
2023-02-04T16:06:24.544Z,10.70
2023-02-04T16:08:52.109Z,10.70
2023-02-04T16:11:19.118Z,10.70
2023-02-04T16:13:46.164Z,10.70
2023-02-04T16:16:13.240Z,10.70
2023-02-04T16:18:40.274Z,10.70
2023-02-04T16:21:07.406Z,10.70
2023-02-04T16:23:34.378Z,10.60
2023-02-04T16:26:01.370Z,10.60
2023-02-04T16:28:28.311Z,10.60
2023-02-04T16:30:55.445Z,10.60
2023-02-04T16:33:22.629Z,10.60
2023-02-04T16:35:57.883Z,10.60
2023-02-04T16:38:25.216Z,10.50
2023-02-04T16:40:52.189Z,10.50
2023-02-04T16:43:19.254Z,10.50
2023-02-04T16:45:46.249Z,10.50
2023-02-04T16:48:13.318Z,10.40
2023-02-04T16:50:40.292Z,10.40
2023-02-04T16:53:10.481Z,10.40
2023-02-04T16:55:37.546Z,10.40
2023-02-04T16:58:04.506Z,10.40
2023-02-04T17:00:31.585Z,10.30
2023-02-04T17:02:58.536Z,10.30
2023-02-04T17:05:25.597Z,10.30
2023-02-04T17:07:52.558Z,10.30
2023-02-04T17:10:39.605Z,10.20
2023-02-04T17:13:06.876Z,10.20
2023-02-04T17:15:34.299Z,10.20
2023-02-04T17:18:01.508Z,10.20
2023-02-04T17:20:28.529Z,10.20
2023-02-04T17:22:56.542Z,10.20
2023-02-04T17:25:23.812Z,10.20
2023-02-04T17:27:52.442Z,10.20
2023-02-04T17:30:20.798Z,10.10
2023-02-04T17:32:47.846Z,10.10
2023-02-04T17:35:15.049Z,10.10
2023-02-04T17:37:42.069Z,10.10
2023-02-04T17:40:14.061Z,10.10
2023-02-04T17:42:41.407Z,10.10
2023-02-04T17:45:10.673Z,10.00
2023-02-04T17:47:39.125Z,10.00
2023-02-04T17:50:09.793Z,10.00
2023-02-04T17:52:37.929Z,10.00
2023-02-04T17:55:22.453Z,10.00
2023-02-04T17:57:50.276Z,9.90
2023-02-04T18:00:20.334Z,9.90
2023-02-04T18:02:50.118Z,9.90
2023-02-04T18:05:22.708Z,9.90
2023-02-04T18:08:14.309Z,9.90
2023-02-04T18:10:44.684Z,9.90
2023-02-04T18:13:18.207Z,9.80
2023-02-04T18:15:48.917Z,9.80
2023-02-04T18:18:26.410Z,9.80
2023-02-04T18:21:03.223Z,9.80
2023-02-04T18:23:33.132Z,9.80
2023-02-04T18:26:31.386Z,9.70
2023-02-04T18:28:59.918Z,9.70
2023-02-04T18:31:36.574Z,9.70
2023-02-04T18:34:20.611Z,9.70
2023-02-04T18:36:48.234Z,9.70
2023-02-04T18:39:27.326Z,9.70
2023-02-04T18:41:54.912Z,9.60
2023-02-04T18:44:26.617Z,9.60
2023-02-04T18:46:54.526Z,9.60
2023-02-04T18:49:34.013Z,9.60
2023-02-04T18:52:18.794Z,9.60
2023-02-04T18:54:52.221Z,9.60
2023-02-04T18:57:31.114Z,9.60
2023-02-04T19:00:10.079Z,9.60
2023-02-04T19:02:58.558Z,9.50
2023-02-04T19:05:27.425Z,9.50
2023-02-04T19:08:05.696Z,9.50
2023-02-04T19:10:42.239Z,9.50
2023-02-04T19:13:19.041Z,9.50
2023-02-04T19:15:56.685Z,9.50
2023-02-04T19:18:30.097Z,9.50
2023-02-04T19:21:08.560Z,9.50
2023-02-04T19:23:37.621Z,9.50
2023-02-04T19:26:25.557Z,9.50
2023-02-04T19:28:53.668Z,9.50
2023-02-04T19:31:21.416Z,9.50
2023-02-04T19:33:50.587Z,9.40
2023-02-04T19:36:37.158Z,9.50
2023-02-04T19:39:22.227Z,9.40
2023-02-04T19:41:51.377Z,9.50
2023-02-04T19:44:48.425Z,9.40
2023-02-04T19:47:36.022Z,9.40
2023-02-04T19:50:28.398Z,9.40
2023-02-04T19:53:02.491Z,9.40
2023-02-04T19:55:42.177Z,9.40
2023-02-04T19:58:17.955Z,9.40
2023-02-04T20:00:47.632Z,9.40
2023-02-04T20:03:37.143Z,9.40
2023-02-04T20:06:10.236Z,9.40
2023-02-04T20:08:48.300Z,9.40
2023-02-04T20:11:30.203Z,9.40
2023-02-04T20:14:22.557Z,9.40
2023-02-04T20:16:54.062Z,9.30
2023-02-04T20:19:33.690Z,9.30
2023-02-04T20:22:18.775Z,9.30
2023-02-04T20:24:57.294Z,9.30
2023-02-04T20:27:37.640Z,9.30
2023-02-04T20:30:11.915Z,9.30
2023-02-04T20:32:47.391Z,9.30
2023-02-04T20:35:14.395Z,9.30
2023-02-04T20:37:42.859Z,9.20
2023-02-04T20:40:23.068Z,9.20
2023-02-04T20:42:58.478Z,9.20
2023-02-04T20:45:32.794Z,9.20
2023-02-04T20:48:25.103Z,9.20
2023-02-04T20:50:54.498Z,9.20
2023-02-04T20:53:29.654Z,9.20
2023-02-04T20:56:14.218Z,9.20
2023-02-04T20:58:45.626Z,9.20
2023-02-04T21:01:21.682Z,9.20
2023-02-04T21:03:51.255Z,9.20
2023-02-04T21:06:27.884Z,9.10
2023-02-04T21:08:59.213Z,9.10
2023-02-04T21:11:27.055Z,9.10
2023-02-04T21:13:54.856Z,9.20
2023-02-04T21:16:22.114Z,9.20
2023-02-04T21:18:50.684Z,9.20
2023-02-04T21:21:20.373Z,9.20
2023-02-04T21:23:47.400Z,9.10
2023-02-04T21:26:14.494Z,9.10
2023-02-04T21:28:41.500Z,9.10
2023-02-04T21:31:09.972Z,9.10
2023-02-04T21:33:37.197Z,9.10
2023-02-04T21:36:04.973Z,9.10
2023-02-04T21:38:31.934Z,9.10
2023-02-04T21:40:58.966Z,9.10
2023-02-04T21:43:25.976Z,9.10
2023-02-04T21:45:53.016Z,9.10
2023-02-04T21:48:20.413Z,9.10
2023-02-04T21:50:47.452Z,9.10
2023-02-04T21:53:14.571Z,9.00
2023-02-04T21:55:41.625Z,9.00
2023-02-04T21:58:09.035Z,9.00
2023-02-04T22:00:36.148Z,9.00
2023-02-04T22:03:03.090Z,9.00
2023-02-04T22:05:30.197Z,9.00
2023-02-04T22:07:58.923Z,9.00
2023-02-04T22:10:26.820Z,9.00
2023-02-04T22:12:53.887Z,9.00
2023-02-04T22:15:28.131Z,9.00
2023-02-04T22:17:56.147Z,8.90
2023-02-04T22:20:25.564Z,9.00
2023-02-04T22:22:53.263Z,9.00
2023-02-04T22:25:21.476Z,8.90
2023-02-04T22:27:49.152Z,9.00
2023-02-04T22:30:17.404Z,9.00
2023-02-04T22:32:44.596Z,8.90
2023-02-04T22:35:12.046Z,8.90
2023-02-04T22:37:40.184Z,8.90
2023-02-04T22:40:09.006Z,8.90
2023-02-04T22:42:36.088Z,8.90
2023-02-04T22:45:03.899Z,8.90
2023-02-04T22:47:31.569Z,8.90
2023-02-04T22:50:10.314Z,8.90
2023-02-04T22:52:37.391Z,8.90
2023-02-04T22:55:04.797Z,8.90
2023-02-04T22:57:31.888Z,8.90
2023-02-04T22:59:59.192Z,8.90
2023-02-04T23:02:26.173Z,8.90
2023-02-04T23:04:53.198Z,8.90
2023-02-04T23:07:20.179Z,8.90
2023-02-04T23:09:47.157Z,8.90
2023-02-04T23:12:14.284Z,8.90
2023-02-04T23:14:45.852Z,8.90
2023-02-04T23:17:14.692Z,8.80
2023-02-04T23:19:42.013Z,8.80
2023-02-04T23:22:10.982Z,8.80
2023-02-04T23:24:39.118Z,8.80
2023-02-04T23:27:06.514Z,8.80
2023-02-04T23:29:35.473Z,8.80
2023-02-04T23:32:03.762Z,8.80
2023-02-04T23:34:31.455Z,8.80
2023-02-04T23:36:58.500Z,8.80
2023-02-04T23:39:25.849Z,8.80
2023-02-04T23:41:53.373Z,8.80
2023-02-04T23:44:20.331Z,8.80
2023-02-04T23:46:47.411Z,8.80
2023-02-04T23:49:15.555Z,8.70
2023-02-04T23:51:42.806Z,8.70
2023-02-04T23:54:09.819Z,8.70
2023-02-04T23:56:36.841Z,8.70
2023-02-04T23:59:04.397Z,8.70
